KCXOKGLS

Guest
Details From KCXO - Lone Star Executive
To KGLS - Scholes INTL at Galveston
Flight Number -
Tags generated
Created
Modified
Stats Distance 71 nm / 132 km
Max Altitude 0 ft / 0 m
Waypoints 3
Social Downloads 0
Likes 0
Share VATSIM

Download

Looking for another format? Having issues loading an existing format? Contact us
Advertisement - Login to hide

Notes

Basic altitude profile: - Ascent Rate: 2500ft/min - Ascent Speed: 250kts - Cruise Altitude: 35000ft - Cruise Speed: 420kts - Descent Rate: 1500ft/min - Descent Speed: 250kts Options: - Use NATs: yes - Use PACOTS: yes - Use low airways: yes - Use high airways: yes

Route

KCXO VUH KGLS

ID Type Via Altitude Latitude Longitude Leg Dist Tot Dist Heading (true) Name
O KCXO APT - 0 ft / 0 m 30.35232˚ -95.41476˚ - 0 nm - Lone Star Executive
VUH VOR - 0 ft / 0 m 29.26933˚ -94.86772˚ 71 nm 71 nm 156° / 156° SCHOLES VORTAC
O KGLS APT - 0 ft / 0 m 29.26532˚ -94.86041˚ 0 nm 71 nm 122° / 122° Scholes INTL at Galveston

Altitude Profile

Advertisement - Login to hide

KCXO

Details ICAO KCXO (CXO)
Name Lone Star Executive
Region United States
Timezone America/Chicago (UTC-6.0)
Stats Elevation 245 ft / 75 m (AMSL)
Location 30.352324° -95.414761°
Runways 2
Magnetic Variation 2.500° E

METAR

KCXO 130653Z AUTO 00000KT 10SM CLR M01/M02 A3021 RMK AO2 SLP231 T10111017

Decode

TAF

TAF KCXO 130525Z 1306/1406 VRB02KT P6SM SKC FM131500 20007KT P6SM BKN250

Decode

Departure Runways

ID Width Length Bearing (true) Bearing (mag) Surface Threshold Offset Overrun Length
01 100 ft / 30 m 5,006 ft / 1,526 m 17.05° 14.55° Concrete 0 ft / 0 m 0 ft / 0 m
14 150 ft / 46 m 6,010 ft / 1,832 m 145.61° 143.11° Concrete 591 ft / 180 m 0 ft / 0 m
19 100 ft / 30 m 5,006 ft / 1,526 m 197.05° 194.55° Concrete 0 ft / 0 m 0 ft / 0 m
32 150 ft / 46 m 6,010 ft / 1,832 m 325.62° 323.12° Concrete 0 ft / 0 m 0 ft / 0 m

KGLS

Details ICAO KGLS (GLS)
Name Scholes INTL at Galveston
Region United States
Timezone America/Chicago (UTC-6.0)
Stats Elevation 6 ft / 2 m (AMSL)
Location 29.265321° -94.860412°
Runways 2
Magnetic Variation 2.203° E

METAR

KGLS 130652Z AUTO 33006KT 10SM CLR 10/03 A3023 RMK AO2 SLP236 T01000033

Decode

TAF

TAF KGLS 130525Z 1306/1406 32006KT P6SM SKC FM131500 20008KT P6SM BKN250

Decode

Destination Runways

ID Width Length Bearing (true) Bearing (mag) Surface Threshold Offset Overrun Length
13 151 ft / 46 m 6,008 ft / 1,831 m 140.26° 138.06° Asphalt 0 ft / 0 m 0 ft / 0 m
17 151 ft / 46 m 6,023 ft / 1,836 m 180.86° 178.66° Concrete 0 ft / 0 m 0 ft / 0 m
31 151 ft / 46 m 6,008 ft / 1,831 m 320.26° 318.06° Asphalt 0 ft / 0 m 0 ft / 0 m
35 151 ft / 46 m 6,023 ft / 1,836 m 0.86° 358.66° Concrete 0 ft / 0 m 0 ft / 0 m

Approach Navaids

Runway Type Ident Frequency Range Bearing (true) Bearing (mag) Slope Elevation
13 Localiser IGLS 111.70 MHz 18 nm / 33 km 140.26° 138.06° - 7 ft / 2 m (AMSL)
13 Glidescope IGLS 111.70 MHz 10 nm / 19 km 140.26° 138.06° 3.00° 5 ft / 2 m (AMSL)